Time;durP1;ratioP1;P1;durP2;ratioP2;P2;SDS_P1;SDS_P2;PMS_P1;PMS_P2;Temp;Humidity;BMP_temperature;BMP_pressure;BME280_temperature;BME280_humidity;BME280_pressure;Samples;Min_cycle;Max_cycle;Signal;HPM_P1;HPM_P2
2022/06/24 00:00:43;;;;;;;3.72;2.10;;;;;;;18.61;44.70;100837.91;5026240;28;20046;-81
2022/06/24 00:03:20;;;;;;;3.92;2.42;;;;;;;18.51;45.07;100844.84;4974823;28;20088;-77
2022/06/24 00:06:39;;;;;;;3.22;1.95;;;;;;;18.54;44.85;100839.34;4997495;28;20176;-79
2022/06/24 00:09:54;;;;;;;5.15;1.83;;;;;;;18.60;44.51;100835.38;5017541;28;20535;-78
2022/06/24 00:12:47;;;;;;;5.20;1.92;;;;;;;18.55;44.40;100833.06;4993759;28;20658;-78
2022/06/24 00:15:13;;;;;;;3.47;2.35;;;;;;;18.61;44.42;100829.13;5001351;28;20140;-80
2022/06/24 00:17:39;;;;;;;5.68;2.20;;;;;;;18.50;44.44;100832.56;4987426;28;20208;-79
2022/06/24 00:20:15;;;;;;;2.83;2.03;;;;;;;18.44;44.35;100825.09;5000739;28;20064;-81
2022/06/24 00:22:47;;;;;;;2.72;1.80;;;;;;;18.46;44.45;100820.53;5001005;28;20137;-79
2022/06/24 00:25:15;;;;;;;4.70;2.00;;;;;;;18.47;44.13;100817.78;5020659;28;20061;-79
2022/06/24 00:27:42;;;;;;;5.35;1.77;;;;;;;18.34;44.33;100817.00;5001602;28;20416;-78
2022/06/24 00:30:15;;;;;;;4.25;1.90;;;;;;;18.24;44.39;100815.97;4987050;28;20056;-76
2022/06/24 00:32:43;;;;;;;5.10;1.85;;;;;;;18.29;44.30;100819.13;4998545;28;20306;-79
2022/06/24 00:35:12;;;;;;;2.92;2.22;;;;;;;18.34;44.06;100810.84;4987089;28;20036;-76
2022/06/24 00:37:40;;;;;;;2.80;1.50;;;;;;;18.29;43.97;100808.53;4986406;28;20524;-80
2022/06/24 00:40:11;;;;;;;4.53;1.80;;;;;;;18.32;43.88;100802.16;5017687;28;20118;-80
2022/06/24 00:42:45;;;;;;;2.85;1.38;;;;;;;18.28;43.95;100798.91;5004219;28;20817;-79
2022/06/24 00:45:26;;;;;;;3.72;1.60;;;;;;;18.22;44.01;100807.31;4986583;28;20062;-77
2022/06/24 00:47:54;;;;;;;;;;;;;;;18.30;43.72;100796.16;5000740;28;20049;-77
2022/06/24 00:50:24;;;;;;;4.63;1.95;;;;;;;18.18;43.96;100792.56;4987352;28;19928;-80
2022/06/24 00:52:56;;;;;;;4.03;2.20;;;;;;;18.18;43.98;100798.69;4998364;28;20265;-78
2022/06/24 00:55:30;;;;;;;3.88;2.22;;;;;;;18.11;43.98;100789.53;5002073;28;20038;-79
2022/06/24 00:57:57;;;;;;;3.55;2.40;;;;;;;18.15;43.67;100787.53;4981923;28;20053;-79
2022/06/24 01:00:25;;;;;;;3.92;2.10;;;;;;;18.11;43.76;100783.41;5003062;28;20034;-77
2022/06/24 01:02:57;;;;;;;4.15;2.00;;;;;;;18.08;43.76;100779.19;5014193;28;20046;-78
2022/06/24 01:05:22;;;;;;;3.78;1.67;;;;;;;17.97;44.08;100782.63;5003244;28;20030;-76
2022/06/24 01:07:48;;;;;;;3.50;1.75;;;;;;;17.96;43.88;100773.00;4999375;28;20569;-80
2022/06/24 01:10:13;;;;;;;3.97;1.73;;;;;;;17.97;43.77;100771.19;4986740;28;20026;-77
2022/06/24 01:12:39;;;;;;;3.20;2.05;;;;;;;17.95;43.77;100771.31;5001134;28;20054;-80
2022/06/24 01:15:05;;;;;;;2.67;1.77;;;;;;;17.91;43.55;100772.47;5018728;28;20042;-80
2022/06/24 01:17:31;;;;;;;2.75;1.90;;;;;;;17.82;43.65;100767.88;5001475;28;20038;-80
2022/06/24 01:19:57;;;;;;;2.85;1.88;;;;;;;17.85;43.55;100763.22;5003781;28;21366;-80
2022/06/24 01:22:24;;;;;;;1.75;1.40;;;;;;;17.78;43.55;100767.25;5016464;28;20630;-78
2022/06/24 01:24:49;;;;;;;5.38;1.58;;;;;;;17.83;43.06;100759.84;5004091;28;20030;-81
2022/06/24 01:27:16;;;;;;;2.28;1.73;;;;;;;17.90;43.08;100754.94;5002828;28;20042;-80
2022/06/24 01:29:41;;;;;;;3.45;1.42;;;;;;;17.75;43.17;100750.78;5008082;28;20026;-84
2022/06/24 01:32:07;;;;;;;2.95;1.70;;;;;;;17.76;42.89;100747.16;5004145;28;20520;-81
2022/06/24 01:34:34;;;;;;;4.15;1.60;;;;;;;17.88;42.63;100741.00;5005118;28;20034;-81
2022/06/24 01:37:00;;;;;;;2.33;1.67;;;;;;;17.79;42.52;100736.38;5018489;28;20042;-82
2022/06/24 01:39:25;;;;;;;1.90;1.42;;;;;;;17.63;42.64;100745.41;5004143;28;20060;-81
2022/06/24 01:41:52;;;;;;;3.85;2.08;;;;;;;17.74;42.61;100738.50;5002705;28;20037;-78
2022/06/24 01:44:18;;;;;;;3.60;2.20;;;;;;;17.76;42.38;100736.59;5003618;28;20528;-79
2022/06/24 01:46:44;;;;;;;2.25;2.00;;;;;;;17.64;42.47;100744.44;5018903;28;20029;-80
2022/06/24 01:49:10;;;;;;;4.43;1.65;;;;;;;17.67;42.21;100731.97;4987935;28;20524;-77
2022/06/24 01:51:40;;;;;;;3.38;1.35;;;;;;;17.71;42.39;100722.88;5001783;28;20037;-81
2022/06/24 01:54:05;;;;;;;3.45;1.60;;;;;;;17.67;42.29;100734.59;4972171;28;20251;-79
2022/06/24 01:56:31;;;;;;;2.65;1.77;;;;;;;17.71;42.21;100726.34;4986109;28;20620;-77
2022/06/24 01:58:56;;;;;;;3.85;1.50;;;;;;;17.64;42.18;100718.03;4999056;28;20046;-79
2022/06/24 02:01:22;;;;;;;2.13;1.88;;;;;;;17.55;42.26;100718.69;5002514;28;20030;-79
2022/06/24 02:03:48;;;;;;;4.68;2.05;;;;;;;17.54;41.96;100716.19;5016129;28;20049;-80
2022/06/24 02:06:14;;;;;;;2.65;1.90;;;;;;;17.56;41.97;100703.66;4986309;28;20125;-79
2022/06/24 02:08:41;;;;;;;4.43;1.77;;;;;;;17.55;41.86;100697.56;5006346;28;20056;-78
2022/06/24 02:13:54;;;;;;;2.55;1.83;;;;;;;17.42;41.82;100702.00;4996293;28;20058;-77
2022/06/24 02:16:21;;;;;;;3.08;1.60;;;;;;;17.45;41.89;100701.78;4988208;28;20096;-79
2022/06/24 02:18:46;;;;;;;6.40;2.30;;;;;;;17.49;41.51;100695.34;4996752;28;20038;-79
2022/06/24 02:21:13;;;;;;;2.30;2.08;;;;;;;17.41;41.63;100693.22;5001036;28;20030;-80
2022/06/24 02:23:38;;;;;;;2.20;1.83;;;;;;;17.47;41.17;100685.81;5000162;28;20532;-78
2022/06/24 02:26:04;;;;;;;5.70;2.33;;;;;;;17.44;41.31;100689.53;5001559;28;20125;-78
2022/06/24 02:28:29;;;;;;;3.80;2.08;;;;;;;17.41;41.25;100680.03;4988274;28;20590;-79
2022/06/24 02:30:58;;;;;;;3.33;1.73;;;;;;;17.33;41.06;100685.00;4999830;28;20105;-78
2022/06/24 02:34:20;;;;;;;2.55;2.10;;;;;;;17.49;40.71;100676.84;4953895;28;20041;-78
2022/06/24 02:37:04;;;;;;;2.58;1.98;;;;;;;17.46;40.61;100677.03;5003989;28;20336;-77
2022/06/24 02:39:41;;;;;;;3.35;1.70;;;;;;;17.45;40.53;100670.09;5031732;28;20034;-76
2022/06/24 02:49:37;;;;;;;2.33;1.57;;;;;;;17.37;40.13;100651.31;5002646;28;20050;-79
2022/06/24 02:56:14;;;;;;;4.20;1.83;;;;;;;17.27;40.01;100644.97;5007200;28;20044;-79
2022/06/24 02:58:45;;;;;;;2.40;1.77;;;;;;;17.39;39.55;100637.03;4983345;28;20134;-80
2022/06/24 03:01:50;;;;;;;2.88;1.63;;;;;;;17.38;39.60;100637.13;5006467;28;20310;-80
2022/06/24 03:04:28;;;;;;;2.85;2.15;;;;;;;17.56;39.10;100629.69;4991592;28;20037;-78
2022/06/24 03:11:13;;;;;;;2.25;1.90;;;;;;;17.61;39.06;100632.84;4988390;28;20049;-80
2022/06/24 03:13:57;;;;;;;2.97;2.05;;;;;;;17.46;39.00;100624.22;4930975;28;20046;-79
2022/06/24 03:19:34;;;;;;;4.68;1.85;;;;;;;17.69;38.73;100619.06;5008349;28;20045;-78
2022/06/24 03:22:20;;;;;;;1.80;1.63;;;;;;;17.64;38.72;100622.88;4950688;28;20052;-80
2022/06/24 03:25:13;;;;;;;4.28;1.58;;;;;;;17.67;38.53;100613.91;4992339;28;20336;-80
2022/06/24 03:27:57;;;;;;;5.35;1.67;;;;;;;17.67;38.59;100621.84;4996612;28;20049;-77
2022/06/24 03:31:23;;;;;;;4.22;1.92;;;;;;;17.71;38.58;100610.06;5020752;28;20037;-77
2022/06/24 03:34:24;;;;;;;2.63;1.83;;;;;;;17.63;38.52;100600.06;5005182;28;20105;-78
2022/06/24 03:37:50;;;;;;;5.30;1.90;;;;;;;17.65;38.41;100598.16;4991877;28;23456;-80
2022/06/24 03:40:16;;;;;;;2.85;1.20;;;;;;;17.64;38.39;100591.16;5015512;28;20496;-79
2022/06/24 03:42:43;;;;;;;4.47;1.92;;;;;;;17.60;38.18;100589.72;4975400;28;20049;-79
2022/06/24 03:45:12;;;;;;;2.13;1.92;;;;;;;17.68;38.28;100590.97;5014818;28;20049;-77
2022/06/24 03:47:47;;;;;;;2.35;1.63;;;;;;;17.80;37.95;100585.56;5011976;28;20080;-78
2022/06/24 03:51:04;;;;;;;4.45;1.88;;;;;;;17.74;38.01;100582.53;5024495;28;20270;-75
2022/06/24 03:53:52;;;;;;;3.10;1.65;;;;;;;17.80;37.98;100579.44;4993295;28;20041;-77
2022/06/24 03:57:01;;;;;;;2.63;2.20;;;;;;;17.78;38.03;100576.06;5000707;28;20194;-82
2022/06/24 04:00:01;;;;;;;2.08;1.85;;;;;;;17.81;37.79;100570.56;5003579;28;20080;-79
2022/06/24 04:02:37;;;;;;;3.47;1.42;;;;;;;17.81;37.88;100570.56;4988702;28;20148;-78
2022/06/24 04:05:04;;;;;;;2.58;1.83;;;;;;;17.80;37.88;100569.72;5011576;28;20129;-78
2022/06/24 04:07:38;;;;;;;3.42;1.65;;;;;;;17.92;37.65;100567.97;5002736;28;20095;-81
2022/06/24 04:10:10;;;;;;;2.20;1.73;;;;;;;17.94;37.54;100557.25;5010410;28;20033;-79
2022/06/24 04:12:37;;;;;;;4.28;1.98;;;;;;;17.98;37.44;100562.22;5013236;28;20049;-76
2022/06/24 04:16:06;;;;;;;4.38;1.70;;;;;;;18.07;37.25;100550.06;5011975;28;20041;-75
2022/06/24 04:18:33;;;;;;;3.10;1.65;;;;;;;18.00;37.24;100548.84;5033296;28;20141;-78
2022/06/24 04:21:01;;;;;;;5.15;1.65;;;;;;;18.21;37.07;100535.81;5015410;28;20060;-76
2022/06/24 04:23:43;;;;;;;2.20;1.45;;;;;;;18.33;36.70;100539.31;4950850;28;20042;-80
2022/06/24 04:27:06;;;;;;;2.90;2.45;;;;;;;18.33;36.86;100536.66;5018618;28;20029;-80
2022/06/24 04:29:42;;;;;;;2.28;1.70;;;;;;;18.22;36.96;100525.09;5013453;28;20046;-78
2022/06/24 04:32:13;;;;;;;2.70;1.73;;;;;;;18.32;36.73;100527.88;4985247;28;20050;-80
2022/06/24 04:35:45;;;;;;;1.67;1.58;;;;;;;18.62;36.27;100529.91;4997942;28;20105;-77
2022/06/24 04:38:31;;;;;;;2.78;1.70;;;;;;;18.49;36.57;100523.91;5003111;28;20045;-77
2022/06/24 04:40:59;;;;;;;4.35;2.35;;;;;;;18.54;36.47;100515.59;4976863;28;20093;-76
2022/06/24 04:43:28;;;;;;;2.60;1.88;;;;;;;18.68;36.37;100518.81;4982599;28;20037;-80
2022/06/24 04:45:55;;;;;;;1.98;1.55;;;;;;;18.89;35.95;100510.97;4987593;28;20067;-80
2022/06/24 04:48:38;;;;;;;3.38;1.85;;;;;;;19.17;35.37;100534.41;5006149;28;20134;-80
2022/06/24 04:51:13;;;;;;;1.67;1.30;;;;;;;19.19;35.59;100549.19;4993785;28;20040;-80
2022/06/24 04:53:47;;;;;;;1.77;1.60;;;;;;;19.04;36.06;100545.97;4972941;28;20072;-80
2022/06/24 04:56:18;;;;;;;;;;;;;;;19.02;36.16;100544.44;5014188;28;20081;-79
2022/06/24 04:59:08;;;;;;;2.15;1.85;;;;;;;19.03;35.75;100539.00;4989619;28;19925;-80
2022/06/24 05:01:40;;;;;;;2.17;1.35;;;;;;;19.12;35.80;100541.84;4995450;28;20037;-79
2022/06/24 05:04:16;;;;;;;1.63;1.20;;;;;;;19.22;35.64;100533.03;4997375;28;20049;-80
2022/06/24 05:07:03;;;;;;;3.53;1.48;;;;;;;19.13;36.24;100535.59;4996268;28;20602;-80
2022/06/24 05:09:30;;;;;;;2.28;1.50;;;;;;;19.03;35.78;100539.00;5012065;28;20030;-79
2022/06/24 05:11:58;;;;;;;3.45;1.73;;;;;;;20.51;33.46;100530.09;5006481;28;20072;-76
2022/06/24 05:14:29;;;;;;;2.53;1.83;;;;;;;21.77;31.23;100525.91;5011325;28;20559;-79
2022/06/24 05:17:00;;;;;;;4.90;1.55;;;;;;;22.82;29.25;100521.31;4952894;28;20428;-76
2022/06/24 05:19:26;;;;;;;3.25;1.77;;;;;;;23.37;28.49;100529.19;5013408;28;20030;-76
2022/06/24 05:21:51;;;;;;;2.13;1.65;;;;;;;23.41;28.25;100522.56;4984937;28;20044;-79
2022/06/24 05:24:17;;;;;;;4.03;1.52;;;;;;;23.97;27.30;100513.31;5027152;28;20037;-79
2022/06/24 05:26:45;;;;;;;4.68;1.63;;;;;;;24.60;26.92;100512.09;5026744;28;20042;-78
2022/06/24 05:29:14;;;;;;;4.20;2.13;;;;;;;24.40;26.82;100510.69;4973802;28;20045;-80
2022/06/24 05:31:42;;;;;;;3.38;1.67;;;;;;;23.80;27.51;100506.16;4994792;28;20049;-79
2022/06/24 05:34:12;;;;;;;3.58;1.63;;;;;;;22.68;29.55;100502.19;4998046;28;20073;-77
2022/06/24 05:37:00;;;;;;;4.45;2.63;;;;;;;22.04;30.21;100498.50;5028671;28;20104;-79
2022/06/24 05:39:34;;;;;;;4.40;1.77;;;;;;;21.45;31.05;100499.63;5026873;28;20579;-79
2022/06/24 05:42:12;;;;;;;4.05;1.73;;;;;;;22.27;30.48;100503.50;5015567;28;20065;-75
2022/06/24 05:44:39;;;;;;;4.28;1.30;;;;;;;23.82;27.88;100501.50;4999311;28;20033;-78
2022/06/24 05:47:11;;;;;;;2.65;1.75;;;;;;;24.08;27.32;100498.88;4980542;28;20040;-80
2022/06/24 05:50:02;;;;;;;4.00;1.52;;;;;;;25.23;26.23;100500.03;4998997;28;20053;-76
2022/06/24 05:55:21;;;;;;;3.13;1.60;;;;;;;25.93;25.05;100503.13;5011267;28;20061;-76
2022/06/24 05:57:46;;;;;;;3.85;1.63;;;;;;;26.27;24.30;100493.00;4988693;28;20123;-78
2022/06/24 06:00:18;;;;;;;3.28;2.72;;;;;;;26.24;24.81;100477.28;5011444;28;20070;-79
2022/06/24 06:03:50;;;;;;;2.47;1.83;;;;;;;26.50;24.31;100497.59;5008972;28;20051;-75
2022/06/24 06:06:42;;;;;;;5.32;2.63;;;;;;;24.18;27.50;100496.88;5013862;28;20066;-78
2022/06/24 06:09:14;;;;;;;2.05;1.55;;;;;;;23.22;28.69;100486.22;4996532;28;20072;-78
2022/06/24 06:11:48;;;;;;;5.22;2.15;;;;;;;23.28;29.00;100490.97;5000628;28;20061;-77
2022/06/24 06:15:11;;;;;;;3.80;2.00;;;;;;;23.91;28.43;100486.41;5000490;28;20057;-75
2022/06/24 06:17:36;;;;;;;6.43;2.22;;;;;;;25.47;26.39;100496.50;5028642;28;20056;-76
2022/06/24 06:20:03;;;;;;;3.53;1.95;;;;;;;26.69;24.35;100497.19;5024147;28;20038;-77
2022/06/24 06:23:28;;;;;;;5.20;1.65;;;;;;;27.68;23.69;100512.53;5026003;28;20683;-76
2022/06/24 06:26:37;;;;;;;6.15;2.30;;;;;;;27.09;23.55;100511.31;4904402;29;20557;-78
2022/06/24 06:29:04;;;;;;;3.67;1.98;;;;;;;28.47;21.68;100503.91;4991342;28;20049;-75
2022/06/24 06:31:34;;;;;;;3.33;2.15;;;;;;;29.06;21.06;100501.06;4994842;28;20038;-76
2022/06/24 06:34:02;;;;;;;5.35;3.72;;;;;;;28.61;21.86;100494.13;5009346;28;20516;-81
2022/06/24 06:36:32;;;;;;;2.55;1.83;;;;;;;28.65;21.98;100501.66;5013469;28;20030;-77
2022/06/24 06:39:04;;;;;;;2.33;2.07;;;;;;;28.86;21.07;100495.47;5007562;28;20486;-76
2022/06/24 06:41:37;;;;;;;3.35;1.80;;;;;;;30.05;20.49;100491.22;5014675;28;20040;-77
2022/06/24 06:44:26;;;;;;;1.80;1.60;;;;;;;30.01;19.96;100480.00;4990511;28;20120;-77
2022/06/24 06:47:32;;;;;;;6.65;2.45;;;;;;;31.05;18.55;100484.31;4977782;28;20195;-78
2022/06/24 06:49:59;;;;;;;1.98;1.55;;;;;;;30.50;18.79;100478.16;5024887;28;20050;-75
2022/06/24 06:52:26;;;;;;;3.95;2.35;;;;;;;29.07;20.76;100474.97;4976961;28;20049;-79
2022/06/24 06:54:56;;;;;;;2.40;1.80;;;;;;;27.79;22.61;100466.44;4992619;28;20190;-78
2022/06/24 06:57:30;;;;;;;3.58;2.35;;;;;;;25.93;24.17;100462.97;5005809;28;20101;-76
2022/06/24 07:00:00;;;;;;;4.25;2.40;;;;;;;25.25;25.77;100455.22;5013727;28;20039;-76
2022/06/24 07:02:32;;;;;;;8.00;2.50;;;;;;;25.19;25.77;100449.72;5004135;28;20089;-76
2022/06/24 07:05:48;;;;;;;6.05;2.40;;;;;;;24.93;26.84;100450.72;5022833;28;20692;-78
2022/06/24 07:09:29;;;;;;;2.97;2.25;;;;;;;24.72;26.42;100448.50;5011195;28;20030;-76
2022/06/24 07:12:17;;;;;;;2.17;1.98;;;;;;;24.69;26.97;100434.66;4989192;28;20038;-78
2022/06/24 07:14:43;;;;;;;3.33;2.15;;;;;;;25.13;26.45;100440.56;4988867;28;20073;-79
2022/06/24 07:17:09;;;;;;;4.53;2.80;;;;;;;25.36;26.90;100443.34;5000101;28;20100;-79
2022/06/24 07:19:36;;;;;;;2.65;2.42;;;;;;;25.75;26.23;100455.19;5014856;28;20046;-79
2022/06/24 07:22:02;;;;;;;2.53;2.28;;;;;;;25.68;25.67;100455.03;4997603;28;20041;-77
2022/06/24 07:24:27;;;;;;;5.32;2.70;;;;;;;27.24;24.27;100468.47;4999223;28;20033;-77
2022/06/24 07:26:56;;;;;;;3.08;2.75;;;;;;;29.13;22.00;100464.31;4997952;28;20037;-78
2022/06/24 07:29:22;;;;;;;3.78;2.05;;;;;;;32.01;19.39;100458.66;5000798;28;20103;-77
2022/06/24 07:31:48;;;;;;;6.28;2.35;;;;;;;32.14;18.81;100464.00;5016859;28;20488;-79
2022/06/24 07:34:16;;;;;;;7.72;2.40;;;;;;;29.52;21.30;100468.31;5000786;28;20033;-78
2022/06/24 07:36:42;;;;;;;3.65;2.20;;;;;;;27.13;24.00;100462.72;5000308;28;20037;-78
2022/06/24 07:39:09;;;;;;;6.13;2.63;;;;;;;26.44;25.89;100464.28;4984063;28;20052;-79
2022/06/24 07:41:35;;;;;;;3.65;2.42;;;;;;;28.92;23.62;100462.41;5001538;28;20096;-79
2022/06/24 07:44:00;;;;;;;5.03;2.45;;;;;;;31.50;19.35;100456.72;4995660;28;20060;-81
2022/06/24 07:46:27;;;;;;;6.40;1.83;;;;;;;33.95;18.23;100453.44;5000666;28;20401;-78
2022/06/24 07:48:52;;;;;;;2.95;2.53;;;;;;;33.93;16.50;100455.53;5000582;28;20046;-77
2022/06/24 07:51:19;;;;;;;5.20;2.92;;;;;;;33.92;17.36;100467.44;4986987;28;20030;-76
2022/06/24 07:53:47;;;;;;;5.93;2.25;;;;;;;33.25;17.90;100461.81;4984809;28;20099;-76
2022/06/24 07:58:58;;;;;;;9.68;2.92;;;;;;;33.77;17.47;100475.97;4998586;28;20046;-79
2022/06/24 08:01:24;;;;;;;4.43;2.67;;;;;;;33.72;17.15;100477.66;4987994;28;20038;-81
2022/06/24 08:03:50;;;;;;;3.13;2.70;;;;;;;34.32;17.19;100475.06;4989028;28;20042;-77
2022/06/24 08:06:16;;;;;;;3.22;1.92;;;;;;;33.98;17.71;100477.38;4983923;28;20030;-80
2022/06/24 08:08:42;;;;;;;3.13;2.83;;;;;;;33.43;17.84;100471.91;4980745;28;20104;-77
2022/06/24 08:11:08;;;;;;;3.88;3.30;;;;;;;33.02;18.31;100474.09;4998440;28;20025;-78
2022/06/24 08:13:33;;;;;;;4.35;2.70;;;;;;;31.64;20.23;100479.09;4959915;28;20053;-79
2022/06/24 08:16:15;;;;;;;5.82;2.80;;;;;;;30.91;21.33;100469.13;5010364;28;20304;-79
2022/06/24 08:18:43;;;;;;;5.82;3.20;;;;;;;31.89;20.19;100469.25;4983470;28;20050;-78
2022/06/24 08:21:39;;;;;;;4.72;3.58;;;;;;;32.18;20.18;100472.50;4995808;28;20046;-78
2022/06/24 08:24:05;;;;;;;4.50;2.70;;;;;;;32.62;19.67;100470.84;4948201;28;20038;-78
2022/06/24 08:26:33;;;;;;;5.57;3.65;;;;;;;31.58;20.91;100473.53;5008537;28;20037;-78
2022/06/24 08:28:59;;;;;;;7.53;4.03;;;;;;;31.28;21.28;100473.09;5022865;28;20634;-79
2022/06/24 08:31:25;;;;;;;3.78;3.45;;;;;;;31.57;21.29;100471.84;5022899;28;20111;-77
2022/06/24 08:33:52;;;;;;;9.48;4.35;;;;;;;31.67;21.40;100470.56;5004364;28;20115;-76
2022/06/24 08:36:17;;;;;;;7.47;4.20;;;;;;;31.36;21.82;100463.94;5004118;28;20025;-76
2022/06/24 08:38:44;;;;;;;4.80;4.40;;;;;;;31.68;21.26;100474.94;5007867;28;20145;-76
2022/06/24 08:41:11;;;;;;;4.63;4.25;;;;;;;31.71;21.36;100455.59;5008207;28;21124;-79
2022/06/24 08:43:44;;;;;;;3.97;3.67;;;;;;;33.10;20.42;100453.22;5009762;28;20050;-74
2022/06/24 08:46:09;;;;;;;5.57;5.07;;;;;;;32.69;20.68;100468.91;4989614;28;20397;-76
2022/06/24 08:48:38;;;;;;;5.88;4.20;;;;;;;32.76;20.95;100464.28;4998147;28;20527;-79
2022/06/24 08:51:05;;;;;;;5.05;4.65;;;;;;;33.69;19.74;100467.28;5000081;28;20030;-77
2022/06/24 08:53:33;;;;;;;5.55;4.60;;;;;;;32.63;21.73;100464.38;4998272;28;20046;-78
2022/06/24 08:55:59;;;;;;;6.35;4.60;;;;;;;31.28;22.61;100450.69;4986391;28;20120;-78
2022/06/24 08:58:25;;;;;;;5.00;3.70;;;;;;;32.72;21.59;100446.84;4990459;28;20052;-76
2022/06/24 09:00:55;;;;;;;6.47;5.70;;;;;;;32.98;21.04;100443.13;5005514;28;20544;-78
2022/06/24 09:03:21;;;;;;;11.50;6.03;;;;;;;33.11;20.57;100439.47;5000958;28;20500;-77
2022/06/24 09:05:47;;;;;;;5.72;5.30;;;;;;;32.01;21.89;100435.16;4997482;28;20037;-78
2022/06/24 09:08:15;;;;;;;5.95;4.30;;;;;;;33.08;22.16;100433.66;4995921;28;20045;-78
2022/06/24 09:10:43;;;;;;;5.28;4.85;;;;;;;33.50;20.72;100437.44;4999950;28;20037;-76
2022/06/24 09:13:20;;;;;;;5.18;4.25;;;;;;;34.03;20.05;100431.41;4997364;28;20077;-77
2022/06/24 09:15:54;;;;;;;6.20;5.60;;;;;;;33.73;19.59;100419.72;5001300;28;20505;-82
2022/06/24 09:18:24;;;;;;;5.53;4.97;;;;;;;34.37;19.03;100420.94;5000647;28;20045;-79
2022/06/24 09:20:56;;;;;;;5.00;4.50;;;;;;;34.86;19.14;100420.84;4999956;28;20088;-77
2022/06/24 09:23:22;;;;;;;5.47;4.82;;;;;;;34.84;19.09;100429.25;4981861;28;20048;-77
2022/06/24 09:25:49;;;;;;;5.03;4.57;;;;;;;34.14;19.66;100442.59;5000808;28;20056;-77
2022/06/24 09:28:29;;;;;;;6.50;5.07;;;;;;;33.04;20.50;100446.84;4980659;28;20405;-78
2022/06/24 09:31:05;;;;;;;7.93;4.85;;;;;;;33.48;20.16;100450.38;4996159;28;20121;-76
2022/06/24 09:33:39;;;;;;;8.60;4.65;;;;;;;33.14;19.99;100449.03;5000064;28;20034;-80
2022/06/24 09:36:07;;;;;;;7.30;5.32;;;;;;;33.80;20.25;100463.84;5016270;28;20030;-78
2022/06/24 09:38:33;;;;;;;5.78;4.88;;;;;;;33.02;20.37;100465.16;5001046;28;20431;-79
2022/06/24 09:41:01;;;;;;;9.02;5.78;;;;;;;32.22;21.61;100473.72;5001463;28;20411;-79
2022/06/24 09:43:31;;;;;;;5.10;4.60;;;;;;;31.73;23.02;100467.03;4998404;28;20034;-77
2022/06/24 09:45:56;;;;;;;6.15;5.18;;;;;;;30.35;23.91;100468.34;5000537;28;20038;-77
2022/06/24 09:48:34;;;;;;;10.13;5.97;;;;;;;29.37;25.43;100470.25;5017105;28;20409;-77
2022/06/24 09:51:02;;;;;;;9.00;5.75;;;;;;;28.69;26.61;100478.75;4977664;28;20061;-78
2022/06/24 09:53:32;;;;;;;9.48;7.35;;;;;;;27.15;28.08;100490.19;4982924;28;20107;-78
2022/06/24 09:55:58;;;;;;;8.50;7.53;;;;;;;25.71;30.80;100485.97;5010310;28;20531;-77
2022/06/24 09:58:24;;;;;;;8.45;7.53;;;;;;;25.35;31.56;100487.19;4963977;28;20045;-78
2022/06/24 10:00:52;;;;;;;8.32;7.45;;;;;;;24.28;33.15;100482.56;5013649;28;20042;-78
2022/06/24 10:03:18;;;;;;;10.25;7.88;;;;;;;24.12;34.15;100497.53;4989153;28;20048;-79
2022/06/24 10:05:49;;;;;;;11.45;7.45;;;;;;;23.62;34.70;100490.22;5002754;28;20042;-79
2022/06/24 10:08:17;;;;;;;9.93;7.80;;;;;;;23.65;35.70;100495.22;4971456;28;20100;-78
2022/06/24 10:10:56;;;;;;;9.73;8.00;;;;;;;24.26;34.10;100493.44;4998283;28;20021;-79
2022/06/24 10:13:27;;;;;;;7.18;6.45;;;;;;;24.58;33.99;100500.75;4986280;28;20136;-78
2022/06/24 10:15:56;;;;;;;10.25;8.55;;;;;;;23.74;34.97;100504.94;4998380;28;20044;-75
2022/06/24 10:18:26;;;;;;;11.05;8.70;;;;;;;23.42;36.01;100509.06;5003250;28;20253;-79
2022/06/24 10:20:56;;;;;;;10.00;8.48;;;;;;;23.52;35.81;100511.66;5018199;28;20040;-78
2022/06/24 10:23:39;;;;;;;21.08;8.52;;;;;;;22.31;37.76;100513.69;4999123;28;20034;-81
2022/06/24 10:26:13;;;;;;;10.50;8.50;;;;;;;22.90;36.99;100519.56;4997729;28;20149;-79
2022/06/24 10:29:04;;;;;;;12.02;8.38;;;;;;;22.50;37.21;100522.59;4995138;28;20116;-81
2022/06/24 10:31:42;;;;;;;12.48;9.43;;;;;;;22.92;36.95;100528.25;4985079;28;20546;-79
2022/06/24 10:34:20;;;;;;;10.70;8.55;;;;;;;22.58;38.54;100531.53;4969041;28;20052;-78
2022/06/24 10:36:47;;;;;;;12.23;7.95;;;;;;;23.30;38.17;100528.13;4996913;28;20042;-78
2022/06/24 10:39:18;;;;;;;14.15;10.32;;;;;;;22.52;38.97;100525.94;4997582;28;20029;-79
2022/06/24 10:41:44;;;;;;;15.40;10.52;;;;;;;21.46;41.70;100527.88;4995089;28;20113;-78
2022/06/24 10:44:18;;;;;;;12.95;10.77;;;;;;;22.14;40.71;100517.16;4996224;28;20061;-77
2022/06/24 10:46:44;;;;;;;12.18;9.77;;;;;;;21.95;40.71;100512.69;4995821;28;20041;-77
2022/06/24 10:49:09;;;;;;;11.27;10.00;;;;;;;21.99;41.52;100514.09;4990138;28;20358;-76
2022/06/24 10:51:35;;;;;;;14.73;9.85;;;;;;;21.80;41.53;100508.81;5012643;28;20066;-78
2022/06/24 10:54:06;;;;;;;13.15;10.90;;;;;;;21.13;43.34;100517.53;5007037;28;20052;-77
2022/06/24 10:56:35;;;;;;;;;;;;;;;20.79;43.78;100525.00;4997668;28;20022;-79
2022/06/24 10:59:00;;;;;;;11.63;10.23;;;;;;;20.71;44.72;100523.03;4992420;28;19925;-77
2022/06/24 11:01:25;;;;;;;14.50;10.85;;;;;;;20.74;44.29;100538.69;4991910;28;20030;-79
2022/06/24 11:03:52;;;;;;;13.57;10.40;;;;;;;21.22;43.66;100539.78;4990275;28;20037;-75
2022/06/24 11:06:17;;;;;;;18.35;11.52;;;;;;;21.54;42.86;100547.50;4979766;28;20197;-76
2022/06/24 11:08:43;;;;;;;11.52;10.30;;;;;;;21.55;42.62;100553.63;4993686;28;20044;-75
2022/06/24 11:11:08;;;;;;;11.88;8.98;;;;;;;21.39;43.33;100559.50;4992513;28;20034;-77
2022/06/24 11:13:34;;;;;;;11.05;9.90;;;;;;;21.60;43.17;100571.81;4992603;28;20042;-77
2022/06/24 11:16:00;;;;;;;16.27;11.55;;;;;;;21.67;42.04;100573.81;5005959;28;20037;-74
2022/06/24 11:18:28;;;;;;;11.52;9.45;;;;;;;22.17;42.25;100573.56;4976245;28;20481;-76
2022/06/24 11:20:55;;;;;;;14.90;10.55;;;;;;;22.26;40.97;100574.53;5006355;28;20221;-76
2022/06/24 11:23:24;;;;;;;17.13;11.07;;;;;;;22.23;40.85;100574.84;4972247;28;20052;-77
2022/06/24 11:25:56;;;;;;;13.45;10.30;;;;;;;22.47;40.84;100570.81;4991565;28;20667;-76
2022/06/24 11:28:24;;;;;;;14.82;11.43;;;;;;;22.56;40.98;100580.56;4992064;28;20089;-75
2022/06/24 11:30:51;;;;;;;13.90;11.40;;;;;;;22.44;40.43;100582.59;4992464;28;20046;-74
2022/06/24 11:33:18;;;;;;;12.43;11.00;;;;;;;21.90;41.58;100582.31;5005823;28;20176;-78
2022/06/24 11:35:46;;;;;;;16.08;11.68;;;;;;;22.57;40.03;100582.25;4977308;28;20056;-77
2022/06/24 11:38:12;;;;;;;20.45;11.38;;;;;;;22.72;40.10;100580.00;4989737;28;20041;-79
2022/06/24 11:40:39;;;;;;;11.30;9.77;;;;;;;22.75;40.77;100590.34;4992292;28;20125;-75
2022/06/24 11:43:09;;;;;;;14.88;11.30;;;;;;;22.67;40.09;100582.22;4973681;28;20044;-80
2022/06/24 11:45:39;;;;;;;11.13;9.27;;;;;;;23.12;39.99;100587.59;4973989;28;20038;-79
2022/06/24 11:48:06;;;;;;;13.60;10.95;;;;;;;23.24;39.25;100588.22;4972990;28;20046;-76
2022/06/24 11:50:33;;;;;;;14.32;10.75;;;;;;;23.56;38.75;100590.34;5010462;28;20137;-76
2022/06/24 11:53:00;;;;;;;13.50;10.52;;;;;;;21.69;42.09;100593.13;4989747;28;20065;-75
2022/06/24 11:55:33;;;;;;;14.73;10.20;;;;;;;22.17;41.15;100586.88;4979893;28;20038;-78
2022/06/24 11:58:02;;;;;;;13.82;9.88;;;;;;;22.58;40.08;100570.63;4994314;28;20404;-76
2022/06/24 12:00:36;;;;;;;11.05;9.90;;;;;;;22.63;40.18;100570.16;5006340;28;20045;-78
2022/06/24 12:03:08;;;;;;;12.27;10.70;;;;;;;22.44;41.12;100571.94;5011522;28;20038;-78
2022/06/24 12:05:39;;;;;;;14.40;10.80;;;;;;;22.82;39.41;100564.78;4980845;28;20026;-77
2022/06/24 12:08:05;;;;;;;13.10;10.00;;;;;;;22.64;39.96;100558.53;5011629;28;20030;-77
2022/06/24 12:10:31;;;;;;;14.73;10.77;;;;;;;22.73;40.01;100549.69;4997344;28;20108;-76
2022/06/24 12:13:03;;;;;;;10.52;8.55;;;;;;;23.08;40.21;100548.06;4960094;28;20053;-77
2022/06/24 12:15:33;;;;;;;10.93;9.15;;;;;;;23.53;39.30;100550.66;4979272;28;20120;-75
2022/06/24 12:17:59;;;;;;;11.18;9.90;;;;;;;22.78;40.87;100558.06;4996188;28;20041;-77
2022/06/24 12:20:28;;;;;;;11.75;10.65;;;;;;;22.75;40.23;100558.38;4997267;28;20034;-77